Time;durP1;ratioP1;P1;durP2;ratioP2;P2;SDS_P1;SDS_P2;PMS_P1;PMS_P2;Temp;Humidity;BMP_temperature;BMP_pressure;BME280_temperature;BME280_humidity;BME280_pressure;Samples;Min_cycle;Max_cycle;Signal;HPM_P1;HPM_P2
2022/11/28 00:01:40;;;;;;;0.63;0.63;;;;;;;6.73;58.19;95719.31;4940141;29;20219;-61
2022/11/28 00:04:07;;;;;;;0.00;0.00;;;;;;;6.94;57.75;95718.16;4954450;29;20207;-61
2022/11/28 00:06:40;;;;;;;0.55;0.55;;;;;;;6.89;57.90;95718.00;4940924;29;20270;-63
2022/11/28 00:09:07;;;;;;;0.40;0.40;;;;;;;6.88;57.93;95722.41;4940252;28;20204;-62
2022/11/28 00:11:34;;;;;;;0.00;0.00;;;;;;;6.79;58.06;95720.28;4939830;28;20287;-62
2022/11/28 00:14:01;;;;;;;0.55;0.55;;;;;;;6.84;58.16;95717.84;4954212;28;20203;-61
2022/11/28 00:16:28;;;;;;;0.00;0.00;;;;;;;6.84;57.90;95717.84;4954202;28;20299;-62
2022/11/28 00:18:55;;;;;;;0.55;0.55;;;;;;;6.67;58.08;95717.56;4944149;28;20252;-62
2022/11/28 00:21:22;;;;;;;0.00;0.00;;;;;;;6.74;57.81;95707.91;4950436;28;20283;-62
2022/11/28 00:23:49;;;;;;;0.00;0.00;;;;;;;6.82;57.69;95712.88;4953765;28;20215;-62
2022/11/28 00:26:22;;;;;;;0.10;0.10;;;;;;;6.78;58.47;95716.91;4940226;28;20262;-62
2022/11/28 00:28:49;;;;;;;0.00;0.00;;;;;;;6.61;58.76;95715.00;4946499;28;20219;-61
2022/11/28 00:31:23;;;;;;;0.05;0.05;;;;;;;6.46;59.16;95711.91;4934604;29;20207;-61
2022/11/28 00:33:51;;;;;;;0.00;0.00;;;;;;;6.56;58.77;95713.03;4934617;29;20187;-63
2022/11/28 00:36:19;;;;;;;4.43;1.67;;;;;;;6.54;58.40;95716.84;4934295;29;20667;-60
2022/11/28 00:38:46;;;;;;;0.00;0.00;;;;;;;6.49;59.03;95712.28;4952935;29;20224;-60
2022/11/28 00:41:19;;;;;;;0.00;0.00;;;;;;;6.48;58.32;95710.66;4942012;28;20645;-60
2022/11/28 00:43:48;;;;;;;0.00;0.00;;;;;;;6.46;58.79;95712.69;4952190;29;20199;-61
2022/11/28 00:46:15;;;;;;;0.28;0.28;;;;;;;6.62;58.37;95717.41;4942346;28;20248;-60
2022/11/28 00:48:43;;;;;;;1.27;0.75;;;;;;;6.53;58.45;95713.44;4947134;29;20568;-63
2022/11/28 00:51:11;;;;;;;0.00;0.00;;;;;;;6.60;58.58;95713.41;4935433;29;20204;-62
2022/11/28 00:53:40;;;;;;;0.13;0.13;;;;;;;6.47;58.82;95719.50;4934016;29;20723;-61
2022/11/28 00:56:11;;;;;;;0.85;0.65;;;;;;;6.52;58.59;95711.03;4951547;29;20196;-59
2022/11/28 00:58:38;;;;;;;0.00;0.00;;;;;;;6.58;58.59;95713.63;4951973;28;20266;-60
2022/11/28 01:01:19;;;;;;;0.38;0.38;;;;;;;6.60;58.15;95714.22;4936703;28;20204;-60
2022/11/28 01:03:48;;;;;;;0.35;0.20;;;;;;;6.57;58.46;95713.84;4944717;28;20679;-63
2022/11/28 01:06:23;;;;;;;0.13;0.13;;;;;;;6.53;58.63;95708.22;4935744;29;20312;-61
2022/11/28 01:08:51;;;;;;;0.20;0.20;;;;;;;6.27;58.96;95707.59;4944691;28;20270;-60
2022/11/28 01:11:19;;;;;;;0.00;0.00;;;;;;;6.20;59.29;95701.63;4939350;28;20310;-61
2022/11/28 01:13:46;;;;;;;0.00;0.00;;;;;;;6.33;59.00;95710.19;4943423;28;20203;-60
2022/11/28 01:16:13;;;;;;;0.00;0.00;;;;;;;6.42;58.84;95708.13;4947234;29;20204;-61
2022/11/28 01:18:40;;;;;;;0.00;0.00;;;;;;;6.14;59.32;95696.28;4941314;29;20192;-61
2022/11/28 01:21:08;;;;;;;0.00;0.00;;;;;;;6.21;59.10;95704.03;4939391;28;20550;-62
2022/11/28 01:23:35;;;;;;;0.00;0.00;;;;;;;6.12;59.60;95700.06;4946350;28;20196;-61
2022/11/28 01:26:04;;;;;;;0.13;0.13;;;;;;;6.05;59.56;95709.72;4945364;28;20219;-61
2022/11/28 01:28:31;;;;;;;0.55;0.40;;;;;;;6.11;58.98;95696.66;4938870;28;20188;-61
2022/11/28 01:31:07;;;;;;;0.00;0.00;;;;;;;6.19;59.07;95703.44;4941901;28;20236;-60
2022/11/28 01:33:34;;;;;;;2.72;1.45;;;;;;;6.09;59.49;95705.69;4946845;29;20200;-61
2022/11/28 01:36:01;;;;;;;0.55;0.32;;;;;;;6.22;58.91;95694.44;4933166;29;20238;-59
2022/11/28 01:38:28;;;;;;;0.65;0.65;;;;;;;6.34;58.61;95696.16;4949095;28;20208;-60
2022/11/28 01:40:56;;;;;;;0.10;0.10;;;;;;;5.95;59.47;95678.13;4952223;28;20609;-60
2022/11/28 01:43:23;;;;;;;0.10;0.10;;;;;;;6.09;59.17;95690.09;4938810;28;20556;-60
2022/11/28 01:45:51;;;;;;;0.20;0.20;;;;;;;6.16;59.10;95690.84;4952054;28;20215;-60
2022/11/28 01:48:23;;;;;;;0.28;0.28;;;;;;;6.27;58.95;95689.38;4951917;28;20334;-62
2022/11/28 01:50:59;;;;;;;0.10;0.10;;;;;;;6.30;58.99;95692.38;4945457;28;20197;-60
2022/11/28 01:53:31;;;;;;;0.68;0.45;;;;;;;6.14;59.07;95683.25;4932813;29;20284;-61
2022/11/28 01:56:05;;;;;;;0.43;0.43;;;;;;;6.18;58.87;95682.84;4949504;29;20211;-61
2022/11/28 01:58:35;;;;;;;0.10;0.10;;;;;;;6.05;58.82;95678.50;4941979;28;20208;-60
2022/11/28 02:01:02;;;;;;;0.25;0.25;;;;;;;6.01;59.21;95690.31;4947143;29;20597;-61
2022/11/28 02:03:40;;;;;;;0.28;0.28;;;;;;;6.01;59.41;95683.31;4943298;28;20323;-61
2022/11/28 02:06:09;;;;;;;0.00;0.00;;;;;;;6.04;59.01;95682.09;4945948;29;20226;-61
2022/11/28 02:08:36;;;;;;;0.00;0.00;;;;;;;6.15;58.66;95665.81;4941150;28;20259;-61
2022/11/28 02:11:33;;;;;;;0.20;0.20;;;;;;;6.21;58.43;95675.41;4950280;28;20211;-61
2022/11/28 02:14:01;;;;;;;1.08;0.95;;;;;;;6.02;58.84;95678.94;4944102;29;20204;-63
2022/11/28 02:16:45;;;;;;;0.00;0.00;;;;;;;6.20;58.75;95675.63;4951978;28;20282;-61
2022/11/28 02:19:38;;;;;;;0.00;0.00;;;;;;;6.19;58.76;95667.00;4939946;28;20192;-61
2022/11/28 02:22:26;;;;;;;0.45;0.30;;;;;;;6.27;58.95;95671.97;4957706;28;20594;-61
2022/11/28 02:25:04;;;;;;;0.30;0.20;;;;;;;6.05;58.67;95642.06;4948742;28;20192;-61
2022/11/28 02:27:52;;;;;;;3.03;1.05;;;;;;;6.27;58.29;95674.56;4940724;29;20223;-61
2022/11/28 02:30:25;;;;;;;1.35;1.25;;;;;;;6.19;58.91;95677.41;4938634;29;20319;-60
2022/11/28 02:32:55;;;;;;;0.00;0.00;;;;;;;6.32;58.25;95672.13;4951622;28;20200;-60
2022/11/28 02:35:22;;;;;;;1.42;1.13;;;;;;;6.08;58.87;95671.06;4938100;28;20210;-60
2022/11/28 02:37:58;;;;;;;0.30;0.30;;;;;;;6.31;58.47;95664.53;4952055;28;20204;-61
2022/11/28 02:40:54;;;;;;;0.10;0.10;;;;;;;6.22;58.36;95666.59;4937895;29;20234;-61
2022/11/28 02:43:25;;;;;;;0.10;0.10;;;;;;;6.21;58.29;95664.19;4940490;28;20267;-61
2022/11/28 02:46:05;;;;;;;0.10;0.10;;;;;;;6.03;59.18;95670.91;4951693;28;20291;-61
2022/11/28 02:48:50;;;;;;;0.38;0.38;;;;;;;6.11;58.83;95668.03;4937706;28;20280;-61
2022/11/28 02:51:34;;;;;;;0.47;0.47;;;;;;;6.01;58.63;95661.69;4942756;29;20219;-60
2022/11/28 02:54:04;;;;;;;0.28;0.20;;;;;;;5.81;59.22;95658.38;4945852;29;20575;-60
2022/11/28 02:56:31;;;;;;;1.38;0.90;;;;;;;6.07;58.85;95664.28;4939544;29;20291;-61
2022/11/28 02:58:57;;;;;;;0.20;0.20;;;;;;;5.97;59.23;95673.53;4938262;28;20208;-60
2022/11/28 03:01:33;;;;;;;0.05;0.05;;;;;;;5.95;59.19;95667.72;4932601;29;20235;-61
2022/11/28 03:04:09;;;;;;;0.47;0.47;;;;;;;6.12;59.06;95669.66;4944862;28;20211;-61
2022/11/28 03:06:43;;;;;;;0.28;0.20;;;;;;;6.10;58.80;95668.25;4938480;29;20227;-60
2022/11/28 03:09:19;;;;;;;0.00;0.00;;;;;;;6.10;59.17;95670.84;4938324;28;20207;-61
2022/11/28 03:12:16;;;;;;;0.20;0.20;;;;;;;6.14;58.83;95683.25;4932125;29;20327;-61
2022/11/28 03:14:55;;;;;;;3.75;1.65;;;;;;;6.24;58.77;95671.59;4945493;29;20527;-60
2022/11/28 03:17:56;;;;;;;0.28;0.28;;;;;;;6.21;58.62;95670.19;4943186;29;20210;-60
2022/11/28 03:20:50;;;;;;;0.17;0.17;;;;;;;6.09;59.17;95669.28;4951594;28;20211;-61
2022/11/28 03:23:47;;;;;;;0.20;0.20;;;;;;;6.35;58.89;95674.31;4941096;29;20857;-61
2022/11/28 03:26:26;;;;;;;0.00;0.00;;;;;;;6.22;58.57;95669.22;4940548;28;20204;-61
2022/11/28 03:29:03;;;;;;;0.93;0.63;;;;;;;6.30;58.51;95676.75;4943780;29;20192;-61
2022/11/28 03:31:40;;;;;;;0.00;0.00;;;;;;;6.35;57.89;95679.50;4940831;28;20200;-61
2022/11/28 03:34:13;;;;;;;3.80;1.38;;;;;;;6.47;58.13;95677.03;4954662;29;20268;-62
2022/11/28 03:36:46;;;;;;;0.00;0.00;;;;;;;6.56;57.44;95668.78;4954398;28;20825;-61
2022/11/28 03:39:17;;;;;;;0.15;0.15;;;;;;;6.49;57.74;95683.66;4945876;28;20208;-61
2022/11/28 03:41:54;;;;;;;0.88;0.88;;;;;;;6.24;58.05;95677.56;4948671;28;20231;-60
2022/11/28 03:44:27;;;;;;;0.88;0.80;;;;;;;6.27;58.45;95679.78;4944479;28;20211;-62
2022/11/28 03:46:58;;;;;;;0.80;0.80;;;;;;;6.29;58.32;95676.97;4953529;28;20244;-61
2022/11/28 03:49:40;;;;;;;0.00;0.00;;;;;;;6.27;58.34;95677.19;4954529;28;20199;-61
2022/11/28 03:52:15;;;;;;;0.35;0.35;;;;;;;6.27;58.20;95671.97;4939053;28;20212;-61
2022/11/28 03:55:03;;;;;;;0.35;0.20;;;;;;;6.22;58.45;95674.41;4940102;29;20651;-60
2022/11/28 03:57:35;;;;;;;0.00;0.00;;;;;;;6.31;58.11;95662.75;4944889;28;20575;-61
2022/11/28 04:00:06;;;;;;;0.00;0.00;;;;;;;6.26;58.66;95665.16;4953735;28;20283;-62
2022/11/28 04:02:55;;;;;;;0.30;0.10;;;;;;;6.29;58.99;95674.34;4954169;28;20199;-61
2022/11/28 04:05:28;;;;;;;0.00;0.00;;;;;;;6.38;58.63;95663.50;4949175;28;20288;-61
2022/11/28 04:08:25;;;;;;;0.00;0.00;;;;;;;6.34;58.58;95661.50;4946245;29;20723;-61
2022/11/28 04:11:04;;;;;;;0.00;0.00;;;;;;;6.39;58.77;95665.06;4942695;29;20198;-61
2022/11/28 04:13:36;;;;;;;0.35;0.20;;;;;;;6.12;58.74;95663.66;4940320;28;20196;-62
2022/11/28 04:16:03;;;;;;;0.00;0.00;;;;;;;5.97;59.37;95660.50;4945700;28;20719;-60
2022/11/28 04:18:42;;;;;;;0.88;0.65;;;;;;;6.06;59.07;95664.47;4950085;28;20203;-60
2022/11/28 04:21:26;;;;;;;0.00;0.00;;;;;;;5.92;60.01;95668.16;4954511;29;20667;-61
2022/11/28 04:23:59;;;;;;;0.32;0.32;;;;;;;5.95;59.42;95660.72;4952453;28;20251;-61
2022/11/28 04:26:35;;;;;;;0.15;0.15;;;;;;;5.94;59.94;95666.94;4953470;28;20237;-60
2022/11/28 04:29:08;;;;;;;0.00;0.00;;;;;;;6.12;59.24;95674.06;4939992;28;20290;-60
2022/11/28 04:31:38;;;;;;;0.15;0.15;;;;;;;6.06;59.45;95674.88;4953454;28;20200;-60
2022/11/28 04:34:10;;;;;;;0.00;0.00;;;;;;;5.97;60.17;95676.13;4953894;28;20199;-61
2022/11/28 04:36:40;;;;;;;0.00;0.00;;;;;;;6.19;59.70;95674.81;4953494;28;20204;-61
2022/11/28 04:39:11;;;;;;;0.38;0.28;;;;;;;6.24;59.18;95674.97;4950572;28;20207;-63
2022/11/28 04:41:44;;;;;;;0.00;0.00;;;;;;;6.32;59.10;95673.94;4943504;29;20227;-63
2022/11/28 04:44:19;;;;;;;1.45;0.55;;;;;;;6.24;59.08;95680.19;4953299;28;20240;-61
2022/11/28 04:46:51;;;;;;;0.00;0.00;;;;;;;6.34;59.14;95677.94;4943583;29;20258;-61
2022/11/28 04:49:18;;;;;;;0.00;0.00;;;;;;;6.66;58.28;95679.50;4950035;29;20239;-61
2022/11/28 04:51:58;;;;;;;0.00;0.00;;;;;;;6.61;58.06;95684.56;4940905;28;20264;-61
2022/11/28 04:54:46;;;;;;;0.00;0.00;;;;;;;6.41;58.88;95676.06;4951501;28;20884;-61
2022/11/28 04:57:20;;;;;;;0.00;0.00;;;;;;;6.36;59.40;95686.34;4940395;28;20239;-62
2022/11/28 04:59:48;;;;;;;0.00;0.00;;;;;;;6.24;59.00;95685.38;4940310;29;20211;-61
2022/11/28 05:02:18;;;;;;;0.00;0.00;;;;;;;6.19;59.38;95685.22;4934227;28;20243;-61
2022/11/28 05:04:46;;;;;;;0.00;0.00;;;;;;;6.29;58.98;95680.38;4932627;28;20681;-63
2022/11/28 05:07:12;;;;;;;0.00;0.00;;;;;;;5.77;60.10;95690.97;4937076;29;20213;-61
2022/11/28 05:09:39;;;;;;;0.10;0.10;;;;;;;5.74;60.19;95700.00;4947335;28;20298;-61
2022/11/28 05:12:06;;;;;;;0.00;0.00;;;;;;;5.84;60.10;95696.97;4953272;28;20206;-61
2022/11/28 05:14:33;;;;;;;0.00;0.00;;;;;;;5.96;59.76;95690.16;4948981;28;20197;-60
2022/11/28 05:17:00;;;;;;;0.00;0.00;;;;;;;6.12;59.61;95687.06;4933312;29;20235;-60
2022/11/28 05:19:27;;;;;;;0.10;0.10;;;;;;;6.17;59.63;95692.44;4935846;29;20209;-63
2022/11/28 05:21:53;;;;;;;0.00;0.00;;;;;;;6.31;59.65;95688.78;4944655;28;20216;-63
2022/11/28 05:24:20;;;;;;;0.00;0.00;;;;;;;6.34;59.61;95685.75;4947322;28;20215;-62
2022/11/28 05:26:48;;;;;;;0.55;0.55;;;;;;;6.42;59.53;95680.28;4946058;28;20204;-61
2022/11/28 05:29:15;;;;;;;0.00;0.00;;;;;;;6.14;59.76;95678.06;4945949;29;20259;-66
2022/11/28 05:31:42;;;;;;;0.10;0.10;;;;;;;6.26;59.36;95675.56;4952010;28;20208;-61
2022/11/28 05:34:09;;;;;;;0.00;0.00;;;;;;;6.29;59.13;95669.97;4952664;28;20728;-64
2022/11/28 05:36:36;;;;;;;0.00;0.00;;;;;;;6.28;59.50;95673.56;4938849;28;20671;-61
2022/11/28 05:39:03;;;;;;;0.08;0.08;;;;;;;6.22;59.43;95684.81;4943580;28;20200;-61
2022/11/28 05:41:31;;;;;;;0.00;0.00;;;;;;;6.28;59.05;95681.38;4933282;29;20188;-62
2022/11/28 05:43:59;;;;;;;0.00;0.00;;;;;;;6.33;58.81;95681.56;4932815;29;20291;-62
2022/11/28 05:46:27;;;;;;;1.23;0.68;;;;;;;6.09;59.38;95664.06;4946536;29;20232;-63
2022/11/28 05:48:54;;;;;;;0.00;0.00;;;;;;;6.04;59.37;95661.28;4942900;28;20224;-65
2022/11/28 05:51:22;;;;;;;0.20;0.20;;;;;;;6.03;60.29;95681.31;4938527;29;20295;-61
2022/11/28 05:53:49;;;;;;;0.00;0.00;;;;;;;6.22;59.77;95686.63;4944241;29;20727;-63
2022/11/28 05:56:18;;;;;;;0.55;0.55;;;;;;;6.26;59.80;95675.56;4932141;28;20677;-63
2022/11/28 05:58:45;;;;;;;0.45;0.45;;;;;;;6.33;59.69;95681.56;4944649;28;20238;-62
2022/11/28 06:01:16;;;;;;;0.35;0.35;;;;;;;6.12;60.61;95664.44;4952342;28;20299;-66
2022/11/28 06:03:44;;;;;;;2.05;0.90;;;;;;;6.32;59.67;95673.94;4952262;28;20204;-65
2022/11/28 06:06:16;;;;;;;0.10;0.10;;;;;;;6.25;59.79;95673.97;4952094;28;20632;-62
2022/11/28 06:08:44;;;;;;;0.90;0.88;;;;;;;6.53;59.75;95676.97;4951869;28;20229;-65
2022/11/28 06:11:13;;;;;;;3.05;1.17;;;;;;;6.55;59.75;95674.97;4938141;28;20230;-63
2022/11/28 06:13:42;;;;;;;0.80;0.65;;;;;;;6.60;59.08;95672.56;4951568;28;20290;-65
2022/11/28 06:16:11;;;;;;;0.00;0.00;;;;;;;6.55;59.85;95669.75;4938712;28;20231;-64
2022/11/28 06:18:39;;;;;;;0.10;0.10;;;;;;;6.55;59.45;95664.56;4952065;28;20230;-62
2022/11/28 06:21:08;;;;;;;0.10;0.08;;;;;;;6.73;58.54;95682.84;4951919;28;20192;-64
2022/11/28 06:23:37;;;;;;;0.00;0.00;;;;;;;6.66;59.10;95671.69;4939155;28;20191;-61
2022/11/28 06:26:13;;;;;;;0.32;0.20;;;;;;;6.72;59.00;95670.84;4952011;28;20672;-65
2022/11/28 06:28:40;;;;;;;0.00;0.00;;;;;;;6.72;58.99;95673.44;4951566;28;20285;-64
2022/11/28 06:31:12;;;;;;;0.32;0.32;;;;;;;6.75;58.57;95673.03;4952359;28;20658;-64
2022/11/28 06:33:40;;;;;;;0.00;0.00;;;;;;;6.58;58.72;95653.75;4945896;28;20196;-63
2022/11/28 06:36:08;;;;;;;0.00;0.00;;;;;;;6.58;59.23;95674.56;4944055;28;20314;-63
2022/11/28 06:38:36;;;;;;;2.75;1.20;;;;;;;6.68;59.18;95664.47;4937864;29;20195;-61
2022/11/28 06:41:06;;;;;;;0.00;0.00;;;;;;;6.62;59.04;95660.13;4941751;28;20711;-62
2022/11/28 06:43:34;;;;;;;0.00;0.00;;;;;;;6.80;58.60;95661.97;4948725;29;20204;-63
2022/11/28 06:46:01;;;;;;;0.00;0.00;;;;;;;6.72;58.96;95660.44;4942620;28;20615;-64
2022/11/28 06:48:28;;;;;;;0.63;0.63;;;;;;;6.29;59.19;95664.75;4945838;29;20241;-62
2022/11/28 06:51:03;;;;;;;0.00;0.00;;;;;;;6.57;59.71;95662.53;4933774;29;20196;-62
2022/11/28 06:53:31;;;;;;;0.00;0.00;;;;;;;6.58;59.13;95664.16;4942808;28;20211;-64
2022/11/28 06:56:13;;;;;;;0.00;0.00;;;;;;;6.56;59.63;95660.97;4949259;28;20284;-62
2022/11/28 06:58:41;;;;;;;0.00;0.00;;;;;;;6.76;58.67;95658.19;4946974;28;20211;-62
2022/11/28 07:01:10;;;;;;;1.55;1.08;;;;;;;6.79;58.75;95660.38;4942019;28;20758;-62
2022/11/28 07:03:38;;;;;;;0.03;0.03;;;;;;;6.76;59.17;95659.00;4955300;28;20200;-62
2022/11/28 07:06:05;;;;;;;0.17;0.17;;;;;;;6.75;59.66;95665.19;4953263;28;20291;-63
2022/11/28 07:08:33;;;;;;;0.30;0.30;;;;;;;6.79;59.53;95663.78;4944391;29;20227;-63
2022/11/28 07:11:12;;;;;;;8.18;2.65;;;;;;;6.69;59.74;95660.88;4941379;28;20668;-62
2022/11/28 07:13:40;;;;;;;0.00;0.00;;;;;;;6.61;59.74;95668.13;4954961;28;20211;-62
2022/11/28 07:16:11;;;;;;;0.10;0.10;;;;;;;6.68;59.20;95659.25;4940657;28;20288;-63
2022/11/28 07:18:38;;;;;;;0.05;0.05;;;;;;;6.58;59.26;95669.38;4943193;29;20256;-62
2022/11/28 07:21:05;;;;;;;0.57;0.57;;;;;;;6.55;60.55;95669.75;4955185;28;20294;-63
2022/11/28 07:23:32;;;;;;;1.75;1.48;;;;;;;6.46;60.25;95668.44;4941747;28;20204;-63
2022/11/28 07:26:00;;;;;;;0.80;0.73;;;;;;;6.55;60.69;95669.75;4955102;28;20231;-62
2022/11/28 07:28:28;;;;;;;0.57;0.57;;;;;;;6.70;59.82;95677.25;4950052;28;20231;-61
2022/11/28 07:31:09;;;;;;;1.05;1.05;;;;;;;6.55;60.17;95666.38;4947116;29;20290;-62
2022/11/28 07:33:37;;;;;;;0.28;0.28;;;;;;;6.29;61.24;95667.34;4950331;28;20310;-63
2022/11/28 07:36:08;;;;;;;0.73;0.73;;;;;;;6.27;61.67;95666.78;4946462;29;20649;-64
2022/11/28 07:38:35;;;;;;;1.30;0.28;;;;;;;6.44;60.86;95657.41;4954275;28;20202;-64
2022/11/28 07:41:07;;;;;;;1.90;1.50;;;;;;;6.46;60.52;95660.63;4944668;28;20641;-61
2022/11/28 07:43:34;;;;;;;0.45;0.45;;;;;;;6.46;60.56;95668.44;4938071;29;20199;-64
2022/11/28 07:46:06;;;;;;;0.22;0.22;;;;;;;6.45;61.22;95663.44;4954487;28;20292;-64
2022/11/28 07:48:34;;;;;;;0.90;0.90;;;;;;;6.59;60.15;95644.09;4954312;28;20343;-62
2022/11/28 07:51:16;;;;;;;0.10;0.10;;;;;;;6.76;60.89;95666.81;4946380;28;20216;-64
2022/11/28 07:53:44;;;;;;;0.43;0.43;;;;;;;6.44;61.77;95651.44;4947467;29;20196;-64
2022/11/28 07:56:15;;;;;;;0.90;0.90;;;;;;;6.72;60.69;95647.41;4940478;28;20235;-62
2022/11/28 07:58:44;;;;;;;0.43;0.40;;;;;;;6.98;59.95;95660.22;4942873;28;20228;-66
2022/11/28 08:01:19;;;;;;;1.63;1.42;;;;;;;6.81;60.25;95646.13;4952414;29;20200;-64
2022/11/28 08:03:46;;;;;;;0.17;0.17;;;;;;;6.84;59.98;95656.13;4954001;28;20258;-62
2022/11/28 08:06:16;;;;;;;0.32;0.32;;;;;;;7.02;59.43;95650.97;4950370;28;20295;-65
2022/11/28 08:08:45;;;;;;;0.03;0.03;;;;;;;6.96;60.11;95657.03;4944389;28;20306;-64
2022/11/28 08:11:14;;;;;;;0.70;0.70;;;;;;;6.96;60.03;95659.63;4953433;28;20731;-64
2022/11/28 08:13:41;;;;;;;0.15;0.15;;;;;;;6.97;59.49;95663.81;4945258;28;20201;-64
2022/11/28 08:16:12;;;;;;;1.58;0.30;;;;;;;7.15;59.87;95653.44;4949241;28;20295;-61
2022/11/28 08:18:39;;;;;;;0.43;0.43;;;;;;;7.25;59.18;95649.53;4946440;28;20335;-63
2022/11/28 08:21:08;;;;;;;2.45;1.30;;;;;;;6.97;59.75;95650.78;4934406;29;20287;-65
2022/11/28 08:23:36;;;;;;;0.55;0.55;;;;;;;6.90;60.16;95644.84;4947240;28;20196;-63
2022/11/28 08:26:05;;;;;;;0.52;0.52;;;;;;;6.85;60.46;95644.69;4934483;28;20659;-61
2022/11/28 08:28:32;;;;;;;0.43;0.43;;;;;;;7.05;60.03;95650.53;4939424;29;20270;-64
2022/11/28 08:31:10;;;;;;;0.05;0.05;;;;;;;7.25;59.12;95646.91;4942730;28;20919;-65
2022/11/28 08:33:38;;;;;;;0.00;0.00;;;;;;;7.35;58.99;95649.84;4952949;29;20550;-63
2022/11/28 08:36:07;;;;;;;0.88;0.28;;;;;;;7.27;59.23;95648.31;4953527;28;20569;-63
2022/11/28 08:38:34;;;;;;;0.17;0.17;;;;;;;7.40;58.11;95647.38;4953306;28;20262;-66
2022/11/28 08:41:21;;;;;;;0.55;0.55;;;;;;;7.16;59.13;95647.22;4953390;28;20279;-62
2022/11/28 08:43:49;;;;;;;0.10;0.10;;;;;;;7.15;60.08;95644.84;4953471;28;20242;-62
2022/11/28 08:46:20;;;;;;;1.20;0.50;;;;;;;7.38;59.36;95638.97;4953645;28;20263;-65
2022/11/28 08:48:49;;;;;;;0.20;0.20;;;;;;;7.55;59.74;95637.38;4935645;28;20209;-63
2022/11/28 08:51:19;;;;;;;0.13;0.13;;;;;;;7.54;59.98;95627.94;4934250;29;20212;-62
2022/11/28 08:53:46;;;;;;;0.00;0.00;;;;;;;7.46;58.95;95630.88;4946645;29;20278;-61
2022/11/28 08:56:15;;;;;;;0.70;0.70;;;;;;;7.20;59.83;95637.16;4939680;28;20204;-63
2022/11/28 08:58:42;;;;;;;0.10;0.10;;;;;;;7.49;59.77;95630.41;4941791;28;20213;-64
2022/11/28 09:01:17;;;;;;;0.30;0.30;;;;;;;7.63;59.36;95626.63;4933967;29;20219;-64
2022/11/28 09:03:45;;;;;;;0.65;0.55;;;;;;;8.01;58.57;95621.97;4934241;28;20564;-65
2022/11/28 09:06:13;;;;;;;1.98;0.93;;;;;;;7.92;58.61;95618.03;4936767;29;20196;-65
2022/11/28 09:08:40;;;;;;;1.55;1.20;;;;;;;7.38;59.03;95612.91;4952803;28;20231;-65
2022/11/28 09:11:09;;;;;;;0.65;0.57;;;;;;;7.18;59.65;95611.31;4939816;28;20204;-65
2022/11/28 09:13:37;;;;;;;0.10;0.10;;;;;;;7.11;60.11;95607.97;4952996;29;20208;-65
2022/11/28 09:16:04;;;;;;;0.85;0.85;;;;;;;7.07;60.14;95609.41;4952952;28;20192;-64
2022/11/28 09:18:31;;;;;;;0.73;0.38;;;;;;;7.45;58.77;95593.56;4945777;28;20681;-61
2022/11/28 09:21:00;;;;;;;0.30;0.30;;;;;;;7.46;59.11;95589.94;4933690;29;20203;-66
2022/11/28 09:23:26;;;;;;;1.23;1.10;;;;;;;7.64;58.79;95587.31;4951915;28;20203;-65
2022/11/28 09:25:54;;;;;;;0.98;0.98;;;;;;;7.59;59.63;95584.53;4941751;28;20550;-65
2022/11/28 09:28:22;;;;;;;1.05;0.85;;;;;;;7.73;59.78;95588.59;4950345;28;20228;-62
2022/11/28 09:30:58;;;;;;;0.20;0.20;;;;;;;7.91;59.12;95579.94;4942874;28;20638;-66
2022/11/28 09:33:26;;;;;;;4.80;1.00;;;;;;;7.83;59.04;95580.22;4936962;29;20200;-63
2022/11/28 09:35:54;;;;;;;0.22;0.22;;;;;;;8.31;58.85;95570.53;4944249;28;20292;-63
2022/11/28 09:38:21;;;;;;;0.90;0.63;;;;;;;8.53;58.79;95570.78;4948618;28;20626;-65
2022/11/28 09:40:49;;;;;;;0.08;0.08;;;;;;;8.83;58.27;95559.19;4952172;29;20196;-62
2022/11/28 09:43:26;;;;;;;0.00;0.00;;;;;;;9.32;56.58;95550.06;4951657;28;20284;-61
2022/11/28 09:45:55;;;;;;;0.00;0.00;;;;;;;9.59;56.17;95542.47;4940910;29;20220;-64
2022/11/28 09:48:27;;;;;;;0.10;0.10;;;;;;;9.77;54.34;95537.03;4932730;29;20806;-64
2022/11/28 09:51:00;;;;;;;0.22;0.22;;;;;;;10.06;53.27;95541.22;4927172;29;20185;-63
2022/11/28 09:53:46;;;;;;;0.57;0.57;;;;;;;9.80;52.84;95526.09;4924065;29;20204;-64
2022/11/28 09:56:21;;;;;;;0.00;0.00;;;;;;;9.66;52.48;95524.81;4914375;29;20193;-62
2022/11/28 09:58:56;;;;;;;0.00;0.00;;;;;;;10.34;51.62;95525.50;4925528;29;20530;-67
2022/11/28 10:01:42;;;;;;;0.00;0.00;;;;;;;10.72;51.26;95517.69;4932589;29;21039;-64
2022/11/28 10:04:19;;;;;;;0.03;0.03;;;;;;;10.59;50.43;95517.22;4932670;29;20454;-62
2022/11/28 10:07:10;;;;;;;1.33;1.13;;;;;;;10.64;50.88;95517.28;4932617;29;20810;-65
2022/11/28 10:09:45;;;;;;;0.40;0.40;;;;;;;10.38;50.84;95518.75;4929475;29;20497;-66
2022/11/28 10:12:39;;;;;;;0.13;0.13;;;;;;;9.00;50.23;95526.13;4924478;29;20452;-62
2022/11/28 10:15:12;;;;;;;0.10;0.10;;;;;;;9.41;51.22;95532.19;4919993;29;20459;-66
2022/11/28 10:18:08;;;;;;;1.00;0.93;;;;;;;9.53;52.26;95531.09;4920940;29;20237;-61
2022/11/28 10:20:40;;;;;;;1.73;1.00;;;;;;;9.64;52.25;95526.84;4922993;29;20440;-65
2022/11/28 10:23:22;;;;;;;0.32;0.32;;;;;;;9.28;50.77;95524.59;4919106;29;20460;-65
2022/11/28 10:26:00;;;;;;;0.00;0.00;;;;;;;9.45;51.02;95521.00;4932363;29;20223;-63
2022/11/28 10:28:33;;;;;;;0.10;0.10;;;;;;;9.12;52.10;95519.03;4932220;29;20240;-62
2022/11/28 10:31:09;;;;;;;0.07;0.07;;;;;;;9.33;51.71;95515.03;4932351;29;20216;-64
2022/11/28 10:33:45;;;;;;;0.20;0.20;;;;;;;9.30;51.09;95501.63;4932392;29;20959;-64
2022/11/28 10:36:35;;;;;;;0.10;0.10;;;;;;;8.81;50.78;95501.13;4932272;29;20909;-62
2022/11/28 10:39:11;;;;;;;0.35;0.35;;;;;;;8.94;51.07;95500.91;4924567;29;20485;-61
2022/11/28 10:42:11;;;;;;;0.37;0.37;;;;;;;9.09;50.89;95495.19;4913195;29;20205;-65
2022/11/28 10:45:13;;;;;;;0.03;0.03;;;;;;;8.87;52.29;95502.84;4913534;29;21036;-62
2022/11/28 10:48:08;;;;;;;0.30;0.30;;;;;;;8.83;53.31;95498.31;4905656;29;20240;-64
2022/11/28 10:51:17;;;;;;;0.00;0.00;;;;;;;8.96;53.41;95491.00;4894192;29;20202;-66
2022/11/28 10:53:55;;;;;;;0.00;0.00;;;;;;;8.92;53.43;95497.72;4894474;29;20261;-67
2022/11/28 10:56:51;;;;;;;0.40;0.40;;;;;;;9.01;53.56;95485.88;4900655;29;20201;-64
2022/11/28 10:59:30;;;;;;;0.03;0.03;;;;;;;9.19;53.47;95488.38;4897378;29;20273;-67
2022/11/28 11:01:58;;;;;;;0.23;0.23;;;;;;;8.87;52.63;95473.31;4894373;29;20300;-66
2022/11/28 11:04:26;;;;;;;0.45;0.45;;;;;;;9.08;52.32;95481.34;4896493;29;20465;-61
2022/11/28 11:07:22;;;;;;;0.47;0.47;;;;;;;8.90;51.45;95478.88;4904823;29;20307;-64
2022/11/28 11:10:05;;;;;;;0.00;0.00;;;;;;;8.90;51.33;95484.13;4899840;29;20700;-67
2022/11/28 11:12:33;;;;;;;0.00;0.00;;;;;;;8.67;51.45;95472.88;4913506;29;20209;-62
2022/11/28 11:15:14;;;;;;;0.00;0.00;;;;;;;8.96;50.56;95472.72;4900212;29;20461;-66
2022/11/28 11:17:42;;;;;;;0.00;0.00;;;;;;;9.16;50.76;95469.69;4899462;29;20210;-63
2022/11/28 11:20:27;;;;;;;0.00;0.00;;;;;;;8.77;50.75;95463.44;4913254;29;20197;-65
2022/11/28 11:22:59;;;;;;;0.00;0.00;;;;;;;8.78;51.23;95472.06;4912230;29;20297;-63
2022/11/28 11:25:30;;;;;;;0.03;0.03;;;;;;;8.43;53.14;95461.66;4901703;29;20210;-64
2022/11/28 11:28:03;;;;;;;0.00;0.00;;;;;;;8.53;52.50;95456.66;4911669;29;20641;-64
2022/11/28 11:30:44;;;;;;;0.10;0.03;;;;;;;8.46;52.80;95456.00;4905894;29;20194;-64
2022/11/28 11:33:16;;;;;;;1.00;0.50;;;;;;;8.72;52.38;95447.66;4907310;29;20209;-67
2022/11/28 11:35:46;;;;;;;0.10;0.10;;;;;;;8.69;52.79;95440.28;4894733;29;20213;-63
2022/11/28 11:38:19;;;;;;;0.63;0.63;;;;;;;8.67;52.01;95442.31;4908597;29;20225;-63
2022/11/28 11:40:48;;;;;;;0.10;0.10;;;;;;;8.85;51.54;95434.34;4905689;29;20243;-61
2022/11/28 11:43:25;;;;;;;0.10;0.10;;;;;;;8.82;52.07;95440.03;4896862;29;20459;-66
2022/11/28 11:46:14;;;;;;;1.20;0.65;;;;;;;8.64;53.05;95436.78;4916446;29;20209;-62
2022/11/28 11:48:44;;;;;;;0.30;0.30;;;;;;;8.46;52.69;95442.13;4940538;29;20215;-65
2022/11/28 11:51:23;;;;;;;0.10;0.10;;;;;;;8.74;52.04;95431.78;4945190;28;20268;-65
2022/11/28 11:54:14;;;;;;;0.00;0.00;;;;;;;8.95;51.74;95431.94;4948396;29;20215;-67
2022/11/28 11:56:45;;;;;;;0.22;0.22;;;;;;;8.71;51.96;95433.00;4934965;29;20193;-62
2022/11/28 11:59:39;;;;;;;0.00;0.00;;;;;;;8.02;51.19;95433.03;4950144;28;20267;-61
2022/11/28 12:02:30;;;;;;;0.10;0.10;;;;;;;8.17;51.56;95436.00;4954169;28;20547;-62
2022/11/28 12:05:22;;;;;;;0.00;0.00;;;;;;;8.21;52.35;95432.69;4947741;28;20243;-63
2022/11/28 12:07:55;;;;;;;0.00;0.00;;;;;;;8.80;51.17;95431.63;4948712;29;20331;-67
2022/11/28 12:10:36;;;;;;;0.30;0.30;;;;;;;8.85;51.38;95433.56;4935185;29;20511;-67